Cherry Valley, Massachusetts
Current Conditions -  °F | °C
As of 3:54 PM on Thursday 18 Dec 2014 (Local Time) from KORH Reporting Station
Overcast Overcast  
Wind Chill: 26°   Ceiling: 2600
Heat Index: 35°   Visibility: 10mi
Dew Point: 27°   Wind: 13mph
Humidity: 72%   Direction: 290°WNW
Pressure: 29.79"   Gusts: NA
Location:  42.24°N, 71.87°W
Report Text: KORH 182054Z 29011KT 10SM OVC026 02/M03 A2979 RMK AO2 SLP099 T00171028 53009
Loading
Personal Weather Stations






























Interactive Weather Map New forecast layout! Learn more

10-Day Weather Forecast

Advertisements
Track Severe Weather on mobile